Decoded Metar for LTAY (DENIZLI in TURKEY) (IATA:DNZ) | Meteo·Mobile Aviation Weather
aviador You're here:

LTAY Decoded Metar

DENIZLI in TURKEY
Report Time2018-09-22 09:50:00
UTC Time2018-09-22 11:05:24
Flight Rules Old
Wind080° at 05 kt
W.Decomp.*RWY 06: 4.8 kt HW 1.4 kt RCW
W.Rank080° ranks 3
Current wind is below 080° avg. (7.2)
Visibility9999 m
Phenomena:N/A
Clouds:N/A
Expected CloudBase > 8,800 ft AGL from Temp-Dew spread
CeilingNone
Temp29°C (ISA +20)
Dew Point07°C (25% RH)
Heat Index27.6°C
AAT26.5°C
QNH1018 hPa
Density Alt4,987 ft
Elevation2,785 ft
Report Wrong Elevation
Raw Report
METAR LTAY 220950Z 08005KT 030V110 CAVOK 29/07 Q1018=

Extra information for LTAY:More info

Metar Taf Metar & Taf Last 4 Metars F.Rules Stats Wind Profile Meteogram Temp Stats Airport Information Weather charts Add Link Nearby VenuesMetar ALERT Operation Metar Decoded Social comments